Time;durP1;ratioP1;P1;durP2;ratioP2;P2;SDS_P1;SDS_P2;PMS_P1;PMS_P2;Temp;Humidity;BMP_temperature;BMP_pressure;BME280_temperature;BME280_humidity;BME280_pressure;Samples;Min_cycle;Max_cycle;Signal;HPM_P1;HPM_P2
2021/05/08 00:00:22;;;;;;;2.42;1.08;;;20.60;38.60;;;;;;4387535;32;20577;-38
2021/05/08 00:02:49;;;;;;;0.90;0.70;;;20.50;38.80;;;;;;4388921;32;20121;-36
2021/05/08 00:05:16;;;;;;;4.07;1.30;;;20.50;39.00;;;;;;4388845;32;20622;-36
2021/05/08 00:07:42;;;;;;;8.48;1.58;;;20.50;39.10;;;;;;4388607;32;20509;-39
2021/05/08 00:10:14;;;;;;;3.72;1.67;;;20.50;39.30;;;;;;4388690;32;20521;-36
2021/05/08 00:12:41;;;;;;;5.30;2.17;;;20.50;39.30;;;;;;4388747;32;20638;-37
2021/05/08 00:15:10;;;;;;;4.37;1.58;;;20.50;39.30;;;;;;4388737;32;20070;-35
2021/05/08 00:17:37;;;;;;;4.47;1.73;;;20.50;39.20;;;;;;4388650;32;20505;-35
2021/05/08 00:20:12;;;;;;;8.85;1.50;;;20.60;39.10;;;;;;4386874;32;20081;-38
2021/05/08 00:22:38;;;;;;;3.35;1.65;;;20.60;38.90;;;;;;4388856;32;20108;-39
2021/05/08 00:25:07;;;;;;;3.30;1.52;;;20.70;38.90;;;;;;4388307;32;20081;-35
2021/05/08 00:27:34;;;;;;;3.80;1.62;;;20.80;38.80;;;;;;4388416;32;20051;-37
2021/05/08 00:30:00;;;;;;;4.18;1.75;;;20.80;38.70;;;;;;4388426;32;20134;-38
2021/05/08 00:32:27;;;;;;;3.20;1.42;;;20.90;38.60;;;;;;4388487;32;20050;-38
2021/05/08 00:34:53;;;;;;;4.45;1.48;;;20.90;38.50;;;;;;4386716;32;20066;-39
2021/05/08 00:37:20;;;;;;;5.37;1.60;;;20.90;38.50;;;;;;4388391;32;20069;-39
2021/05/08 00:39:46;;;;;;;5.53;1.40;;;21.00;38.50;;;;;;4388258;32;20092;-38
2021/05/08 00:42:12;;;;;;;4.00;1.48;;;21.00;38.40;;;;;;4388321;32;20512;-36
2021/05/08 00:44:39;;;;;;;5.90;1.67;;;21.10;38.40;;;;;;4388368;32;20069;-38
2021/05/08 00:47:05;;;;;;;6.78;1.50;;;21.10;38.40;;;;;;4382755;32;20054;-40
2021/05/08 00:49:32;;;;;;;5.22;1.35;;;21.10;38.30;;;;;;4371353;32;20520;-38
2021/05/08 00:51:59;;;;;;;3.40;1.27;;;21.10;38.40;;;;;;4371836;32;20058;-36
2021/05/08 00:54:26;;;;;;;6.12;1.75;;;21.10;38.30;;;;;;4372452;32;20526;-36
2021/05/08 00:56:52;;;;;;;5.07;1.52;;;21.00;38.30;;;;;;4373029;32;20627;-35
2021/05/08 00:59:19;;;;;;;9.07;1.30;;;21.00;38.30;;;;;;4373219;32;20089;-36
2021/05/08 01:01:45;;;;;;;4.35;1.37;;;21.00;38.30;;;;;;4371653;32;20143;-36
2021/05/08 01:04:12;;;;;;;5.78;1.77;;;21.10;38.30;;;;;;4373246;32;20606;-37
2021/05/08 01:06:39;;;;;;;6.80;1.73;;;21.10;38.30;;;;;;4373002;32;20157;-35
2021/05/08 01:09:06;;;;;;;5.32;1.70;;;21.10;38.20;;;;;;4372961;32;20147;-36
2021/05/08 01:11:33;;;;;;;6.70;1.42;;;21.20;38.30;;;;;;4372761;32;20612;-37
2021/05/08 01:14:00;;;;;;;7.15;1.92;;;21.20;38.30;;;;;;4359283;32;20053;-38
2021/05/08 01:16:26;;;;;;;4.30;2.10;;;21.30;38.00;;;;;;4371716;32;20078;-36
2021/05/08 01:18:56;;;;;;;3.22;1.55;;;21.30;37.80;;;;;;4371767;32;20069;-38
2021/05/08 01:21:23;;;;;;;5.28;0.82;;;21.30;37.80;;;;;;4372993;32;20058;-35
2021/05/08 01:23:50;;;;;;;2.55;1.00;;;21.20;37.80;;;;;;4371484;32;20524;-35
2021/05/08 01:26:17;;;;;;;6.93;1.30;;;21.20;37.90;;;;;;4372756;32;20074;-36
2021/05/08 01:28:43;;;;;;;6.53;1.30;;;21.10;38.00;;;;;;4372722;32;20064;-36
2021/05/08 01:31:10;;;;;;;9.60;1.80;;;21.00;38.10;;;;;;4373127;32;20069;-38
2021/05/08 01:33:37;;;;;;;16.73;2.40;;;21.00;38.30;;;;;;4371212;32;20065;-36
2021/05/08 01:36:04;;;;;;;9.73;2.15;;;21.00;38.50;;;;;;4372871;32;20058;-35
2021/05/08 01:38:32;;;;;;;7.72;1.80;;;21.10;38.30;;;;;;4372864;32;20470;-35
2021/05/08 01:41:07;;;;;;;4.47;1.90;;;21.20;38.20;;;;;;4371221;32;20124;-38
2021/05/08 01:43:34;;;;;;;8.90;2.37;;;21.20;38.10;;;;;;4371297;32;20183;-36
2021/05/08 01:46:00;;;;;;;9.52;1.90;;;21.10;37.70;;;;;;4359032;32;20055;-37
2021/05/08 01:48:28;;;;;;;7.30;1.87;;;20.90;37.90;;;;;;4382930;32;20066;-34
2021/05/08 01:50:54;;;;;;;8.65;2.22;;;20.80;38.20;;;;;;4372398;32;20172;-36
2021/05/08 01:53:21;;;;;;;11.07;2.62;;;20.80;38.40;;;;;;4372777;32;20180;-38
2021/05/08 01:55:48;;;;;;;13.25;3.28;;;20.90;38.50;;;;;;4371244;32;20066;-35
2021/05/08 01:58:14;;;;;;;11.20;1.73;;;21.00;38.60;;;;;;4372844;32;20074;-36
2021/05/08 02:00:43;;;;;;;8.20;2.33;;;21.10;38.50;;;;;;4372543;32;20135;-38
2021/05/08 02:03:11;;;;;;;12.02;4.32;;;21.20;38.60;;;;;;4372427;32;20136;-39
2021/05/08 02:05:38;;;;;;;4.53;2.78;;;21.30;38.40;;;;;;4374417;32;20070;-35
2021/05/08 02:08:06;;;;;;;5.75;2.60;;;21.40;38.10;;;;;;4375050;32;20504;-38
2021/05/08 02:10:34;;;;;;;7.57;2.45;;;21.40;38.30;;;;;;4375130;32;20074;-37
2021/05/08 02:13:05;;;;;;;9.18;2.33;;;21.50;38.20;;;;;;4375676;32;20144;-36
2021/05/08 02:15:31;;;;;;;6.32;2.20;;;21.40;38.10;;;;;;4375559;32;20099;-38
2021/05/08 02:17:58;;;;;;;10.75;2.22;;;21.40;39.00;;;;;;4375150;32;20594;-35
2021/05/08 02:20:27;;;;;;;6.80;2.17;;;21.40;38.40;;;;;;4373860;32;20066;-38
2021/05/08 02:22:59;;;;;;;10.90;3.40;;;21.40;38.60;;;;;;4375169;32;20178;-37
2021/05/08 02:25:26;;;;;;;8.65;2.50;;;21.50;38.20;;;;;;4375368;32;21109;-36
2021/05/08 02:27:53;;;;;;;7.80;2.10;;;21.50;37.90;;;;;;4373853;32;20080;-37
2021/05/08 02:30:27;;;;;;;5.68;2.92;;;21.60;37.50;;;;;;4375239;32;20077;-39
2021/05/08 02:32:54;;;;;;;12.13;2.83;;;21.70;37.20;;;;;;4373720;32;20163;-37
2021/05/08 02:35:21;;;;;;;7.68;2.25;;;21.80;37.20;;;;;;4375237;32;20479;-36
2021/05/08 02:37:48;;;;;;;4.22;1.95;;;21.90;37.00;;;;;;4375267;32;20138;-38
2021/05/08 02:40:18;;;;;;;4.75;2.35;;;21.90;37.00;;;;;;4374691;32;20542;-35
2021/05/08 02:42:45;;;;;;;7.03;2.58;;;21.90;37.20;;;;;;4375273;32;20526;-39
2021/05/08 02:45:13;;;;;;;6.22;1.73;;;22.00;37.30;;;;;;4374862;32;20070;-38
2021/05/08 02:47:40;;;;;;;1.62;0.95;;;22.00;37.20;;;;;;4375037;32;20070;-38
2021/05/08 02:50:08;;;;;;;10.55;1.95;;;22.10;37.20;;;;;;4374651;32;20134;-39
2021/05/08 02:52:34;;;;;;;5.12;1.58;;;22.20;37.20;;;;;;4375000;32;20068;-35
2021/05/08 02:55:01;;;;;;;8.38;1.90;;;22.30;37.20;;;;;;4373303;32;20065;-38
2021/05/08 02:57:27;;;;;;;7.60;1.30;;;22.50;37.10;;;;;;4374627;32;20069;-39
2021/05/08 02:59:54;;;;;;;5.95;0.95;;;22.70;36.90;;;;;;4374982;32;20463;-40
2021/05/08 03:02:20;;;;;;;3.67;1.05;;;22.90;36.60;;;;;;4341596;33;20102;-38
2021/05/08 03:04:47;;;;;;;5.03;2.03;;;23.10;36.20;;;;;;4342538;33;20147;-39
2021/05/08 03:07:13;;;;;;;4.45;1.20;;;23.30;36.10;;;;;;4342307;33;20207;-38
2021/05/08 03:09:40;;;;;;;8.13;1.90;;;23.50;35.80;;;;;;4342447;33;20083;-39
2021/05/08 03:12:08;;;;;;;3.55;1.12;;;23.70;35.60;;;;;;4342451;33;20129;-37
2021/05/08 03:14:34;;;;;;;6.95;1.10;;;23.90;35.20;;;;;;4342487;33;20135;-39
2021/05/08 03:17:00;;;;;;;5.37;1.27;;;24.10;34.90;;;;;;4341655;32;20078;-36
2021/05/08 03:19:27;;;;;;;5.62;1.15;;;24.30;34.50;;;;;;4342250;33;20083;-39
2021/05/08 03:21:54;;;;;;;7.62;2.40;;;24.50;34.30;;;;;;4341942;33;20174;-40
2021/05/08 03:24:20;;;;;;;2.80;1.25;;;24.70;34.40;;;;;;4342002;33;20086;-40
2021/05/08 03:26:47;;;;;;;7.22;1.77;;;24.90;34.10;;;;;;4341946;33;20527;-41
2021/05/08 03:29:14;;;;;;;6.62;2.20;;;25.10;33.60;;;;;;4317636;33;20093;-41
2021/05/08 03:31:40;;;;;;;5.53;0.90;;;25.30;33.70;;;;;;4341874;33;20078;-39
2021/05/08 03:34:06;;;;;;;10.45;1.23;;;25.50;33.40;;;;;;4368295;32;20103;-40
2021/05/08 03:36:33;;;;;;;4.72;0.90;;;25.60;33.00;;;;;;4372488;32;20065;-39
2021/05/08 03:38:59;;;;;;;3.00;0.70;;;25.60;32.80;;;;;;4374024;32;20705;-41
2021/05/08 03:41:26;;;;;;;9.13;3.20;;;25.70;32.80;;;;;;4356157;32;20081;-39
2021/05/08 03:43:52;;;;;;;6.03;1.90;;;25.80;32.70;;;;;;4356676;32;20636;-41
2021/05/08 03:46:19;;;;;;;12.90;2.37;;;25.80;32.50;;;;;;4357146;32;20092;-40
2021/05/08 03:48:46;;;;;;;2.35;1.05;;;25.80;32.40;;;;;;4371234;32;20093;-41
2021/05/08 03:51:12;;;;;;;4.90;1.48;;;25.80;32.50;;;;;;4371487;32;20070;-41
2021/05/08 03:53:39;;;;;;;2.75;1.35;;;25.80;33.30;;;;;;4358764;32;20613;-41
2021/05/08 03:56:05;;;;;;;3.25;1.40;;;25.80;32.20;;;;;;4371472;32;20070;-41
2021/05/08 03:58:32;;;;;;;6.90;1.73;;;25.70;32.30;;;;;;4371323;32;20440;-41
2021/05/08 04:00:59;;;;;;;3.83;1.20;;;25.80;32.30;;;;;;4371606;32;20089;-41
2021/05/08 04:03:26;;;;;;;2.78;0.90;;;26.00;32.20;;;;;;4370759;32;20662;-41
2021/05/08 04:05:52;;;;;;;5.37;1.85;;;26.10;32.10;;;;;;4358779;32;20081;-41
2021/05/08 04:08:19;;;;;;;4.12;1.17;;;26.30;31.90;;;;;;4371407;32;20174;-41
2021/05/08 04:10:47;;;;;;;4.60;1.52;;;26.50;31.60;;;;;;4370821;32;20073;-39
2021/05/08 04:13:17;;;;;;;4.18;1.30;;;26.70;30.80;;;;;;4373013;32;20054;-41
2021/05/08 04:15:44;;;;;;;6.97;2.15;;;26.90;30.70;;;;;;4373439;32;20106;-41
2021/05/08 04:18:11;;;;;;;3.78;1.20;;;27.10;30.60;;;;;;4373621;32;20069;-42
2021/05/08 04:20:38;;;;;;;3.28;1.25;;;27.30;30.70;;;;;;4373269;32;20108;-42
2021/05/08 04:23:05;;;;;;;5.07;1.60;;;27.60;30.60;;;;;;4373325;32;20607;-38
2021/05/08 04:25:32;;;;;;;13.43;1.50;;;27.90;30.40;;;;;;4373785;32;20143;-42
2021/05/08 04:27:58;;;;;;;3.12;0.98;;;28.20;30.30;;;;;;4372838;32;20163;-42
2021/05/08 04:30:25;;;;;;;4.60;1.40;;;28.50;29.70;;;;;;4373548;32;20090;-42
2021/05/08 04:32:51;;;;;;;12.45;2.05;;;28.70;28.90;;;;;;4371384;32;20599;-42
2021/05/08 04:35:18;;;;;;;4.60;1.80;;;28.80;28.90;;;;;;4372987;32;20127;-41
2021/05/08 04:37:45;;;;;;;8.73;1.83;;;28.90;28.90;;;;;;4373069;32;20062;-43
2021/05/08 04:40:12;;;;;;;5.18;2.00;;;29.00;28.90;;;;;;4372667;32;20070;-43
2021/05/08 04:42:38;;;;;;;12.77;1.87;;;29.30;28.90;;;;;;4372976;32;21183;-42
2021/05/08 04:45:06;;;;;;;8.90;1.90;;;29.70;29.00;;;;;;4371866;32;20062;-40
2021/05/08 04:47:32;;;;;;;9.38;1.77;;;30.10;28.40;;;;;;4381706;32;20095;-42
2021/05/08 04:50:02;;;;;;;9.30;2.17;;;30.50;28.10;;;;;;4388267;32;20069;-42
2021/05/08 04:52:28;;;;;;;11.32;1.60;;;30.90;27.90;;;;;;4388057;32;20060;-42
2021/05/08 04:54:54;;;;;;;5.62;1.77;;;31.50;27.50;;;;;;4386639;32;20078;-43
2021/05/08 04:57:21;;;;;;;4.87;0.98;;;32.00;27.10;;;;;;4387962;32;20069;-43
2021/05/08 04:59:47;;;;;;;3.22;0.98;;;32.30;26.70;;;;;;4388088;32;20058;-42
2021/05/08 05:02:14;;;;;;;2.85;1.00;;;32.70;26.50;;;;;;4386359;32;20077;-42
2021/05/08 05:04:40;;;;;;;4.45;1.37;;;32.80;26.20;;;;;;4387872;32;20073;-46
2021/05/08 05:07:07;;;;;;;11.20;1.12;;;32.80;26.00;;;;;;4388485;32;20081;-35
2021/05/08 05:09:33;;;;;;;3.95;0.77;;;32.80;26.00;;;;;;4387781;32;20142;-42
2021/05/08 05:12:00;;;;;;;5.20;1.25;;;32.60;25.80;;;;;;4388275;32;20068;-42
2021/05/08 05:14:27;;;;;;;7.43;1.00;;;32.20;26.10;;;;;;4388061;32;20088;-43
2021/05/08 05:16:54;;;;;;;7.03;1.15;;;31.90;26.40;;;;;;4387956;32;20092;-42
2021/05/08 05:19:20;;;;;;;7.90;2.28;;;31.70;26.70;;;;;;4388050;32;20147;-42
2021/05/08 05:21:47;;;;;;;5.70;1.20;;;31.70;26.90;;;;;;4387592;32;20533;-42
2021/05/08 05:24:13;;;;;;;8.35;1.75;;;31.70;26.90;;;;;;4386330;32;20062;-43
2021/05/08 05:26:40;;;;;;;5.20;1.27;;;32.00;26.80;;;;;;4387906;32;20074;-42
2021/05/08 05:29:09;;;;;;;4.85;1.00;;;32.20;26.80;;;;;;4387863;32;20606;-43
2021/05/08 05:31:39;;;;;;;4.62;1.10;;;32.40;26.70;;;;;;4387407;32;20537;-42
2021/05/08 05:34:05;;;;;;;4.03;1.00;;;32.60;26.50;;;;;;4387381;32;20527;-42
2021/05/08 05:36:32;;;;;;;8.45;1.58;;;32.80;26.20;;;;;;4385971;32;20072;-43
2021/05/08 05:39:02;;;;;;;3.75;1.52;;;33.10;26.00;;;;;;4387399;32;21244;-42
2021/05/08 05:41:28;;;;;;;5.80;1.52;;;33.20;25.70;;;;;;4374370;32;20463;-43
2021/05/08 05:43:55;;;;;;;11.00;1.30;;;33.30;25.70;;;;;;4357472;32;20169;-43
2021/05/08 05:46:22;;;;;;;5.22;1.27;;;33.40;25.80;;;;;;4357676;32;20148;-42
2021/05/08 05:48:48;;;;;;;10.45;1.58;;;33.40;25.70;;;;;;4357086;32;20146;-42
2021/05/08 05:51:15;;;;;;;5.57;1.33;;;33.40;25.60;;;;;;4358012;32;20106;-43
2021/05/08 05:53:42;;;;;;;6.65;1.48;;;33.40;25.50;;;;;;4358154;32;20074;-42
2021/05/08 05:56:08;;;;;;;7.90;1.52;;;33.40;25.30;;;;;;4357935;32;20063;-43
2021/05/08 05:58:34;;;;;;;5.05;1.37;;;33.40;25.10;;;;;;4358331;32;20076;-41
2021/05/08 06:01:01;;;;;;;4.87;1.60;;;33.30;25.50;;;;;;4357579;32;20069;-42
2021/05/08 06:03:27;;;;;;;6.40;1.85;;;33.20;25.40;;;;;;4345287;32;20074;-42
2021/05/08 06:05:54;;;;;;;5.82;1.83;;;33.10;25.50;;;;;;4357488;32;20077;-42
2021/05/08 06:08:20;;;;;;;9.38;1.23;;;33.10;25.50;;;;;;4357770;32;20074;-42
2021/05/08 06:10:47;;;;;;;11.60;2.35;;;33.10;25.70;;;;;;4357984;32;20144;-42
2021/05/08 06:13:13;;;;;;;5.78;1.60;;;33.10;25.30;;;;;;4369863;32;20070;-44
2021/05/08 06:15:40;;;;;;;4.12;1.35;;;33.10;25.50;;;;;;4373123;32;20078;-41
2021/05/08 06:18:06;;;;;;;3.05;1.67;;;32.90;25.50;;;;;;4372962;32;20117;-42
2021/05/08 06:20:33;;;;;;;8.00;2.55;;;32.60;25.60;;;;;;4360232;32;20585;-41
2021/05/08 06:22:59;;;;;;;7.35;2.00;;;32.40;25.70;;;;;;4374944;32;20074;-40
2021/05/08 06:25:26;;;;;;;9.82;2.37;;;32.20;25.90;;;;;;4375078;32;20047;-42
2021/05/08 06:27:53;;;;;;;9.32;1.83;;;31.90;26.10;;;;;;4374861;32;20070;-42
2021/05/08 06:30:20;;;;;;;5.40;1.65;;;31.70;26.40;;;;;;4374792;32;20073;-42
2021/05/08 06:32:46;;;;;;;10.23;2.35;;;31.60;26.50;;;;;;4374783;32;20096;-42
2021/05/08 06:35:13;;;;;;;5.03;2.10;;;31.60;26.90;;;;;;4375176;32;20164;-41
2021/05/08 06:37:39;;;;;;;6.62;1.70;;;31.40;26.60;;;;;;4375227;32;20066;-42
2021/05/08 06:40:07;;;;;;;6.40;2.00;;;31.40;26.60;;;;;;4374554;32;20505;-42
2021/05/08 06:42:33;;;;;;;5.82;2.10;;;31.40;26.80;;;;;;4374669;32;20097;-43
2021/05/08 06:45:00;;;;;;;8.10;2.20;;;31.30;26.70;;;;;;4374764;32;20458;-44
2021/05/08 06:47:27;;;;;;;4.43;1.98;;;31.20;26.70;;;;;;4382679;32;20115;-43
2021/05/08 06:49:53;;;;;;;5.85;2.12;;;31.20;26.40;;;;;;4388062;32;20109;-42
2021/05/08 06:52:20;;;;;;;7.70;2.05;;;31.20;26.40;;;;;;4389578;32;20134;-43
2021/05/08 06:54:46;;;;;;;10.10;1.65;;;31.20;26.30;;;;;;4389104;32;20066;-43
2021/05/08 06:57:13;;;;;;;14.05;1.33;;;31.20;26.20;;;;;;4389843;32;20062;-42
2021/05/08 06:59:39;;;;;;;7.25;1.12;;;31.30;26.20;;;;;;4389592;32;20046;-42
2021/05/08 07:02:06;;;;;;;7.12;1.80;;;31.30;25.60;;;;;;4389638;32;20070;-43
2021/05/08 07:04:33;;;;;;;12.65;1.20;;;31.40;25.80;;;;;;4389456;32;20105;-41
2021/05/08 07:06:59;;;;;;;4.95;0.75;;;31.50;26.00;;;;;;4389465;32;20142;-43
2021/05/08 07:09:26;;;;;;;8.10;0.90;;;31.60;24.80;;;;;;4389144;32;20513;-43
2021/05/08 07:11:52;;;;;;;9.50;1.15;;;31.70;24.30;;;;;;4389605;32;20066;-43
2021/05/08 07:14:19;;;;;;;3.17;0.82;;;31.70;24.50;;;;;;4388199;32;20150;-41
2021/05/08 07:16:45;;;;;;;5.32;1.60;;;31.70;24.30;;;;;;4389324;32;20065;-41
2021/05/08 07:19:12;;;;;;;5.70;0.88;;;31.70;24.60;;;;;;4389338;32;20162;-44
2021/05/08 07:21:38;;;;;;;2.70;0.80;;;31.80;24.60;;;;;;4389065;32;20054;-43
2021/05/08 07:24:08;;;;;;;5.32;1.00;;;32.00;24.80;;;;;;4389524;32;20584;-43
2021/05/08 07:26:35;;;;;;;7.43;1.12;;;32.30;24.50;;;;;;4389228;32;20065;-43
2021/05/08 07:29:01;;;;;;;6.32;0.77;;;32.50;24.50;;;;;;4389042;32;20521;-42
2021/05/08 07:31:28;;;;;;;5.65;1.08;;;32.70;23.90;;;;;;4388860;32;20061;-43
2021/05/08 07:33:54;;;;;;;3.87;0.70;;;32.80;23.50;;;;;;4388817;32;20530;-42
2021/05/08 07:36:21;;;;;;;4.82;0.75;;;32.70;22.90;;;;;;4388990;32;20160;-43
2021/05/08 07:38:47;;;;;;;6.60;0.98;;;32.40;22.70;;;;;;4389054;32;20562;-41
2021/05/08 07:41:14;;;;;;;6.60;0.90;;;32.20;23.20;;;;;;4389026;32;20081;-44
2021/05/08 07:43:40;;;;;;;7.35;1.33;;;31.90;23.30;;;;;;4388789;32;20173;-43
2021/05/08 07:46:07;;;;;;;4.80;0.70;;;31.70;23.50;;;;;;4388395;32;20650;-42
2021/05/08 07:48:33;;;;;;;7.15;1.00;;;31.60;23.80;;;;;;4373929;32;20069;-43
2021/05/08 07:51:00;;;;;;;2.87;0.80;;;31.50;23.90;;;;;;4385442;32;20191;-42
2021/05/08 07:53:26;;;;;;;4.55;1.10;;;31.40;23.80;;;;;;4386389;32;20151;-41
2021/05/08 07:55:52;;;;;;;5.82;0.90;;;31.30;23.80;;;;;;4373752;32;20563;-42
2021/05/08 07:58:19;;;;;;;7.60;0.70;;;31.30;24.20;;;;;;4373786;32;20061;-42
2021/05/08 08:00:46;;;;;;;4.60;1.50;;;31.30;23.90;;;;;;4374063;32;20085;-42
2021/05/08 08:03:12;;;;;;;5.65;1.67;;;31.20;23.90;;;;;;4373268;32;20065;-42
2021/05/08 08:05:38;;;;;;;3.75;0.98;;;31.10;24.10;;;;;;4386231;32;20101;-42
2021/05/08 08:08:05;;;;;;;4.72;0.70;;;30.90;24.30;;;;;;4373411;32;20176;-41
2021/05/08 08:10:31;;;;;;;5.43;0.68;;;30.90;24.10;;;;;;4385697;32;20100;-40
2021/05/08 08:12:58;;;;;;;2.55;0.60;;;30.80;23.80;;;;;;4386117;32;20072;-42
2021/05/08 08:15:24;;;;;;;7.12;0.90;;;30.90;23.90;;;;;;4385877;32;20061;-42
2021/05/08 08:17:51;;;;;;;6.45;1.92;;;30.90;23.60;;;;;;4385602;32;20139;-43
2021/05/08 08:20:17;;;;;;;7.65;0.70;;;31.00;23.60;;;;;;4385791;32;20100;-42
2021/05/08 08:22:45;;;;;;;5.78;1.15;;;31.00;23.30;;;;;;4371659;32;20074;-42
2021/05/08 08:25:12;;;;;;;6.00;1.52;;;31.10;23.80;;;;;;4372802;32;20583;-42
2021/05/08 08:27:39;;;;;;;2.45;0.70;;;31.10;23.80;;;;;;4371887;32;20522;-43
2021/05/08 08:30:08;;;;;;;6.65;1.05;;;31.30;23.80;;;;;;4373158;32;20616;-42
2021/05/08 08:32:35;;;;;;;4.18;0.65;;;31.40;23.80;;;;;;4373324;32;20070;-43
2021/05/08 08:35:01;;;;;;;5.28;1.17;;;31.40;23.70;;;;;;4371290;32;20525;-42
2021/05/08 08:37:28;;;;;;;3.03;0.88;;;31.30;23.60;;;;;;4373050;32;20458;-42
2021/05/08 08:39:54;;;;;;;3.55;0.82;;;31.30;23.70;;;;;;4372630;32;20061;-44
2021/05/08 08:42:20;;;;;;;3.92;0.70;;;31.20;23.80;;;;;;4372739;32;20096;-41
2021/05/08 08:44:47;;;;;;;1.70;0.50;;;31.20;23.70;;;;;;4359065;32;20076;-42
2021/05/08 08:47:29;;;;;;;3.53;0.50;;;31.30;23.30;;;;;;4379433;32;20084;-42
2021/05/08 08:50:04;;;;;;;1.98;0.80;;;31.40;23.00;;;;;;4388090;32;20094;-42
2021/05/08 08:52:30;;;;;;;3.78;0.68;;;31.50;22.90;;;;;;4388023;32;20148;-42
2021/05/08 08:54:58;;;;;;;5.45;0.90;;;31.40;22.50;;;;;;4386038;32;20057;-42
2021/05/08 08:57:35;;;;;;;7.40;1.15;;;31.30;22.70;;;;;;4388167;32;20147;-43
2021/05/08 09:00:11;;;;;;;3.45;0.70;;;31.10;22.90;;;;;;4388265;32;20531;-42
2021/05/08 09:02:37;;;;;;;6.05;0.70;;;31.10;23.00;;;;;;4387495;32;20137;-42
2021/05/08 09:05:05;;;;;;;4.90;0.80;;;31.00;23.10;;;;;;4387367;32;20069;-42
2021/05/08 09:07:32;;;;;;;6.57;0.60;;;31.10;23.10;;;;;;4386137;32;20084;-42
2021/05/08 09:09:58;;;;;;;2.90;0.50;;;31.20;23.20;;;;;;4385724;32;20080;-41
2021/05/08 09:12:30;;;;;;;3.92;1.02;;;31.30;23.00;;;;;;4387141;32;20141;-42
2021/05/08 09:14:57;;;;;;;3.72;0.57;;;31.40;23.00;;;;;;4387041;32;20053;-42
2021/05/08 09:17:25;;;;;;;7.53;1.15;;;31.40;22.80;;;;;;4387610;32;20521;-43
2021/05/08 09:20:00;;;;;;;4.03;0.60;;;31.60;22.90;;;;;;4387759;32;20570;-42
2021/05/08 09:22:34;;;;;;;1.67;0.60;;;32.00;22.70;;;;;;4387505;32;20078;-43
2021/05/08 09:25:03;;;;;;;4.90;0.60;;;32.40;22.50;;;;;;4387854;32;20156;-41
2021/05/08 09:27:42;;;;;;;1.37;0.50;;;32.80;22.40;;;;;;4387504;32;20073;-42
2021/05/08 09:30:22;;;;;;;1.98;0.60;;;33.20;22.00;;;;;;4387369;32;20077;-43
2021/05/08 09:32:58;;;;;;;4.87;0.60;;;33.50;21.80;;;;;;4387498;32;20073;-45
2021/05/08 09:35:25;;;;;;;4.18;0.68;;;33.90;21.80;;;;;;4374333;32;20073;-42
2021/05/08 09:38:13;;;;;;;1.80;0.50;;;34.40;21.50;;;;;;4387900;32;20231;-45
2021/05/08 09:40:45;;;;;;;2.28;0.60;;;34.70;21.20;;;;;;4387584;32;20219;-44
2021/05/08 09:43:17;;;;;;;6.60;0.88;;;35.10;21.10;;;;;;4387647;32;20093;-42
2021/05/08 09:45:45;;;;;;;2.40;0.60;;;35.50;21.10;;;;;;4387194;32;20493;-43
2021/05/08 09:48:32;;;;;;;0.98;0.47;;;35.70;20.80;;;;;;4374546;32;20113;-43
2021/05/08 09:51:13;;;;;;;1.77;0.50;;;36.00;21.00;;;;;;4372039;32;20058;-41
2021/05/08 09:53:40;;;;;;;7.90;0.80;;;36.00;20.90;;;;;;4372249;32;20053;-42
2021/05/08 09:56:06;;;;;;;4.90;0.65;;;36.00;20.70;;;;;;4372167;32;20078;-41
2021/05/08 09:58:33;;;;;;;2.90;0.50;;;36.00;20.70;;;;;;4370653;32;20558;-42
2021/05/08 10:01:00;;;;;;;1.92;0.55;;;35.90;20.70;;;;;;4372253;32;20161;-42
2021/05/08 10:03:26;;;;;;;1.87;0.82;;;35.90;20.90;;;;;;4370709;32;20089;-42
2021/05/08 10:06:01;;;;;;;5.00;0.60;;;35.90;20.70;;;;;;4372208;32;20178;-43
2021/05/08 10:08:28;;;;;;;1.77;0.60;;;36.00;21.00;;;;;;4372546;32;20069;-42
2021/05/08 10:10:55;;;;;;;5.43;0.60;;;36.10;20.70;;;;;;4372176;32;20515;-34
2021/05/08 10:13:21;;;;;;;3.33;0.50;;;36.10;20.60;;;;;;4372427;32;20062;-43
2021/05/08 10:15:48;;;;;;;3.53;0.40;;;36.10;20.60;;;;;;4357928;32;20140;-42
2021/05/08 10:18:14;;;;;;;4.22;0.60;;;36.00;20.70;;;;;;4370928;32;20073;-43
2021/05/08 10:20:42;;;;;;;2.37;0.55;;;35.80;20.80;;;;;;4372419;32;20086;-42
2021/05/08 10:23:11;;;;;;;2.53;0.50;;;35.90;20.80;;;;;;4371970;32;20498;-42
2021/05/08 10:25:38;;;;;;;4.43;0.62;;;36.00;20.70;;;;;;4372589;32;20061;-43
2021/05/08 10:28:05;;;;;;;2.83;0.50;;;36.10;20.60;;;;;;4374891;32;20093;-43
2021/05/08 10:30:40;;;;;;;4.55;0.60;;;36.30;20.60;;;;;;4373304;32;20524;-44
2021/05/08 10:33:17;;;;;;;2.83;0.60;;;36.50;20.60;;;;;;4373271;32;20095;-39
2021/05/08 10:35:49;;;;;;;6.45;0.62;;;36.30;20.40;;;;;;4361588;32;20552;-42
2021/05/08 10:38:23;;;;;;;6.22;0.68;;;36.20;20.70;;;;;;4373099;32;20165;-43
2021/05/08 10:41:16;;;;;;;3.65;0.88;;;36.20;20.80;;;;;;4374854;32;20117;-42
2021/05/08 10:43:54;;;;;;;5.00;0.50;;;36.30;20.50;;;;;;4372271;32;20512;-43
2021/05/08 10:46:24;;;;;;;3.92;0.47;;;36.40;20.60;;;;;;4375539;32;20088;-42
2021/05/08 10:49:12;;;;;;;4.70;0.70;;;36.30;20.40;;;;;;4387811;32;20085;-45
2021/05/08 10:52:00;;;;;;;7.62;0.75;;;36.10;20.60;;;;;;4379796;32;20073;-42
2021/05/08 10:54:44;;;;;;;12.37;0.90;;;35.90;20.80;;;;;;4389654;32;20290;-43
2021/05/08 10:57:23;;;;;;;2.62;0.50;;;35.70;20.70;;;;;;4389240;32;20070;-43
2021/05/08 11:00:04;;;;;;;0.80;0.47;;;35.40;20.90;;;;;;4389293;32;20518;-41
2021/05/08 11:02:43;;;;;;;4.60;0.77;;;35.10;21.10;;;;;;4389626;32;20084;-42
2021/05/08 11:05:33;;;;;;;2.87;0.55;;;35.10;21.70;;;;;;4389563;32;20519;-41
2021/05/08 11:07:59;;;;;;;4.68;0.57;;;35.00;21.10;;;;;;4389560;32;20065;-42
2021/05/08 11:10:35;;;;;;;2.55;0.60;;;34.80;21.00;;;;;;4389637;32;20069;-42
2021/05/08 11:13:10;;;;;;;4.47;0.70;;;34.70;21.30;;;;;;4389027;32;20086;-43
2021/05/08 11:15:51;;;;;;;5.12;0.70;;;34.50;21.20;;;;;;4389127;32;20165;-43
2021/05/08 11:18:43;;;;;;;11.15;1.27;;;34.60;21.60;;;;;;4389134;32;20094;-43
2021/05/08 11:21:15;;;;;;;4.60;0.50;;;34.80;21.50;;;;;;4387748;32;20117;-43
2021/05/08 11:23:46;;;;;;;8.00;0.60;;;35.00;21.10;;;;;;4389284;32;20966;-42
2021/05/08 11:26:25;;;;;;;1.52;0.45;;;35.20;20.90;;;;;;4388827;32;20057;-41
2021/05/08 11:29:07;;;;;;;2.15;0.60;;;35.00;21.00;;;;;;4388636;32;20081;-44
2021/05/08 11:31:35;;;;;;;4.97;0.85;;;35.20;21.10;;;;;;4389177;32;20091;-43
2021/05/08 11:34:11;;;;;;;3.15;1.33;;;35.30;20.90;;;;;;4388606;32;20181;-43
2021/05/08 11:37:03;;;;;;;4.18;0.50;;;35.30;20.70;;;;;;4387262;32;20072;-43
2021/05/08 11:39:37;;;;;;;2.90;0.98;;;35.30;20.80;;;;;;4388514;32;20050;-40
2021/05/08 11:42:20;;;;;;;3.47;0.60;;;35.20;20.70;;;;;;4389124;32;20070;-42
2021/05/08 11:44:57;;;;;;;7.57;0.80;;;35.30;20.90;;;;;;4388635;32;20110;-43
2021/05/08 11:47:30;;;;;;;6.68;0.70;;;35.30;20.90;;;;;;4380964;32;20062;-41
2021/05/08 11:50:08;;;;;;;1.58;0.43;;;35.40;21.00;;;;;;4374096;32;20069;-42
2021/05/08 11:52:39;;;;;;;3.45;0.50;;;35.50;20.70;;;;;;4372024;32;20131;-43
2021/05/08 11:55:20;;;;;;;3.08;0.60;;;35.50;20.70;;;;;;4373490;32;20475;-42
2021/05/08 11:57:54;;;;;;;4.50;0.90;;;35.50;20.90;;;;;;4373683;32;20054;-42
2021/05/08 12:00:22;;;;;;;3.03;0.68;;;35.40;20.70;;;;;;4373921;32;20628;-43
2021/05/08 12:02:50;;;;;;;3.30;0.60;;;35.60;20.90;;;;;;4373637;32;20079;-42
2021/05/08 12:05:16;;;;;;;4.85;0.80;;;35.60;20.70;;;;;;4371832;32;20155;-43
2021/05/08 12:07:43;;;;;;;9.95;0.70;;;35.60;20.80;;;;;;4371956;32;20091;-42
2021/05/08 12:10:19;;;;;;;7.60;0.73;;;35.60;20.60;;;;;;4371626;32;20054;-43
2021/05/08 12:13:05;;;;;;;7.32;0.93;;;35.60;21.20;;;;;;4373583;32;20139;-42
2021/05/08 12:15:34;;;;;;;6.40;0.90;;;35.30;20.60;;;;;;4373295;32;20154;-42
2021/05/08 12:18:22;;;;;;;8.40;0.70;;;35.10;20.70;;;;;;4373748;32;20082;-42
2021/05/08 12:20:51;;;;;;;1.75;0.75;;;34.80;21.00;;;;;;4373254;32;20066;-43
2021/05/08 12:23:24;;;;;;;1.40;0.45;;;34.80;21.00;;;;;;4372793;32;20077;-42
2021/05/08 12:26:17;;;;;;;2.28;0.50;;;34.70;20.80;;;;;;4359859;32;20072;-43
2021/05/08 12:28:46;;;;;;;4.40;0.55;;;34.90;20.80;;;;;;4372893;32;20074;-42
2021/05/08 12:31:32;;;;;;;3.97;0.60;;;35.10;20.60;;;;;;4373303;32;20096;-43
2021/05/08 12:34:09;;;;;;;1.75;0.80;;;35.40;20.70;;;;;;4373263;32;20230;-41
2021/05/08 12:36:36;;;;;;;5.12;0.85;;;35.60;20.40;;;;;;4373242;32;20073;-41
2021/05/08 12:39:22;;;;;;;2.45;0.50;;;35.50;20.40;;;;;;4372881;32;20163;-36
2021/05/08 12:41:55;;;;;;;3.55;0.90;;;35.40;20.50;;;;;;4373055;32;20058;-42
2021/05/08 12:44:40;;;;;;;0.90;0.47;;;35.40;20.70;;;;;;4372806;32;20173;-42
2021/05/08 12:47:25;;;;;;;9.23;0.70;;;35.40;20.60;;;;;;4378500;32;20157;-44
2021/05/08 12:50:12;;;;;;;4.10;0.45;;;35.50;20.60;;;;;;4385873;32;20069;-43
2021/05/08 12:52:44;;;;;;;2.67;0.45;;;35.40;20.40;;;;;;4387188;32;20547;-41
2021/05/08 12:55:43;;;;;;;1.52;0.45;;;35.30;20.50;;;;;;4387775;32;20455;-43